sensor_id;sensor_type;location;lat;lon;timestamp;temperature;humidity
67942;SHT31;54731;42.600;23.476;2022-08-19T17:09:15;31.77;33.88
67942;SHT31;54731;42.600;23.476;2022-08-19T17:11:43;31.78;34.03
67942;SHT31;54731;42.600;23.476;2022-08-19T17:14:08;31.63;34.87
67942;SHT31;54731;42.600;23.476;2022-08-19T17:16:35;31.39;35.42
67942;SHT31;54731;42.600;23.476;2022-08-19T17:19:03;31.31;34.86
67942;SHT31;54731;42.600;23.476;2022-08-19T17:21:31;31.12;35.51
67942;SHT31;54731;42.600;23.476;2022-08-19T17:23:58;30.88;35.15
67942;SHT31;54731;42.600;23.476;2022-08-19T17:26:24;30.74;35.77
67942;SHT31;54731;42.600;23.476;2022-08-19T17:28:51;30.58;36.13
67942;SHT31;54731;42.600;23.476;2022-08-19T17:31:20;30.48;35.41
67942;SHT31;54731;42.600;23.476;2022-08-19T17:33:47;30.41;36.35
67942;SHT31;54731;42.600;23.476;2022-08-19T17:36:13;30.31;35.93
67942;SHT31;54731;42.600;23.476;2022-08-19T17:38:39;30.10;36.73
67942;SHT31;54731;42.600;23.476;2022-08-19T17:41:04;29.98;36.49
67942;SHT31;54731;42.600;23.476;2022-08-19T17:43:32;29.80;36.57
67942;SHT31;54731;42.600;23.476;2022-08-19T17:46:01;29.67;36.98
67942;SHT31;54731;42.600;23.476;2022-08-19T17:48:32;29.54;37.03
67942;SHT31;54731;42.600;23.476;2022-08-19T17:51:13;29.34;37.97
67942;SHT31;54731;42.600;23.476;2022-08-19T17:53:39;29.19;38.43
67942;SHT31;54731;42.600;23.476;2022-08-19T17:56:05;29.10;39.04
67942;SHT31;54731;42.600;23.476;2022-08-19T17:58:30;28.98;39.38
67942;SHT31;54731;42.600;23.476;2022-08-19T18:00:56;28.88;39.04
67942;SHT31;54731;42.600;23.476;2022-08-19T18:03:25;28.82;39.16
67942;SHT31;54731;42.600;23.476;2022-08-19T18:05:55;28.83;39.27
67942;SHT31;54731;42.600;23.476;2022-08-19T18:08:22;28.72;39.68
67942;SHT31;54731;42.600;23.476;2022-08-19T18:10:47;28.58;39.35
67942;SHT31;54731;42.600;23.476;2022-08-19T18:13:13;28.43;39.93
67942;SHT31;54731;42.600;23.476;2022-08-19T18:15:38;28.31;40.18
67942;SHT31;54731;42.600;23.476;2022-08-19T18:18:05;28.22;40.33
67942;SHT31;54731;42.600;23.476;2022-08-19T18:20:32;28.06;40.53
67942;SHT31;54731;42.600;23.476;2022-08-19T18:22:57;27.90;41.54
67942;SHT31;54731;42.600;23.476;2022-08-19T18:25:26;27.84;41.27
67942;SHT31;54731;42.600;23.476;2022-08-19T18:27:56;27.73;42.10
67942;SHT31;54731;42.600;23.476;2022-08-19T18:30:23;27.73;41.62
67942;SHT31;54731;42.600;23.476;2022-08-19T18:32:50;27.67;42.35
67942;SHT31;54731;42.600;23.476;2022-08-19T18:35:25;27.59;42.79
67942;SHT31;54731;42.600;23.476;2022-08-19T18:37:55;27.53;42.81
67942;SHT31;54731;42.600;23.476;2022-08-19T18:40:21;27.47;41.91
67942;SHT31;54731;42.600;23.476;2022-08-19T18:43:06;27.41;42.98
67942;SHT31;54731;42.600;23.476;2022-08-19T18:45:44;27.41;41.95
67942;SHT31;54731;42.600;23.476;2022-08-19T18:48:29;27.31;42.11
67942;SHT31;54731;42.600;23.476;2022-08-19T18:51:14;27.29;42.13
67942;SHT31;54731;42.600;23.476;2022-08-19T18:53:41;27.12;43.50
67942;SHT31;54731;42.600;23.476;2022-08-19T18:56:09;27.08;42.72
67942;SHT31;54731;42.600;23.476;2022-08-19T18:58:37;27.02;42.52
67942;SHT31;54731;42.600;23.476;2022-08-19T19:01:13;26.95;42.92
67942;SHT31;54731;42.600;23.476;2022-08-19T19:03:41;26.95;42.67
67942;SHT31;54731;42.600;23.476;2022-08-19T19:06:10;26.94;42.64
67942;SHT31;54731;42.600;23.476;2022-08-19T19:08:35;26.81;43.63
67942;SHT31;54731;42.600;23.476;2022-08-19T19:11:06;26.67;43.65
67942;SHT31;54731;42.600;23.476;2022-08-19T19:13:33;26.68;43.31
67942;SHT31;54731;42.600;23.476;2022-08-19T19:15:58;26.67;43.43
67942;SHT31;54731;42.600;23.476;2022-08-19T19:18:28;26.60;43.36
67942;SHT31;54731;42.600;23.476;2022-08-19T19:20:53;26.58;43.15
67942;SHT31;54731;42.600;23.476;2022-08-19T19:23:19;26.57;43.23
67942;SHT31;54731;42.600;23.476;2022-08-19T19:25:45;26.55;43.38
67942;SHT31;54731;42.600;23.476;2022-08-19T19:28:11;26.55;42.99
67942;SHT31;54731;42.600;23.476;2022-08-19T19:30:37;26.54;42.99
67942;SHT31;54731;42.600;23.476;2022-08-19T19:33:03;26.54;42.77
67942;SHT31;54731;42.600;23.476;2022-08-19T19:35:29;26.57;42.86
67942;SHT31;54731;42.600;23.476;2022-08-19T19:37:55;26.61;42.72
67942;SHT31;54731;42.600;23.476;2022-08-19T19:40:21;26.62;42.97
67942;SHT31;54731;42.600;23.476;2022-08-19T19:42:48;26.52;43.17
67942;SHT31;54731;42.600;23.476;2022-08-19T19:45:15;26.45;43.27
67942;SHT31;54731;42.600;23.476;2022-08-19T19:47:41;26.45;43.50
67942;SHT31;54731;42.600;23.476;2022-08-19T19:50:09;26.43;43.48
67942;SHT31;54731;42.600;23.476;2022-08-19T19:52:36;26.44;43.40
67942;SHT31;54731;42.600;23.476;2022-08-19T19:55:02;26.33;43.78
67942;SHT31;54731;42.600;23.476;2022-08-19T19:57:28;26.31;43.57
67942;SHT31;54731;42.600;23.476;2022-08-19T19:59:54;26.30;43.65
67942;SHT31;54731;42.600;23.476;2022-08-19T20:02:20;26.27;43.67
67942;SHT31;54731;42.600;23.476;2022-08-19T20:04:46;26.28;43.68
67942;SHT31;54731;42.600;23.476;2022-08-19T20:07:12;26.20;43.87
67942;SHT31;54731;42.600;23.476;2022-08-19T20:09:38;26.18;43.70
67942;SHT31;54731;42.600;23.476;2022-08-19T20:12:04;26.14;43.78
67942;SHT31;54731;42.600;23.476;2022-08-19T20:14:32;26.12;44.16
67942;SHT31;54731;42.600;23.476;2022-08-19T20:17:00;26.07;44.06
67942;SHT31;54731;42.600;23.476;2022-08-19T20:19:30;26.06;44.25
67942;SHT31;54731;42.600;23.476;2022-08-19T20:21:57;25.97;44.33
67942;SHT31;54731;42.600;23.476;2022-08-19T20:24:29;25.92;44.50
67942;SHT31;54731;42.600;23.476;2022-08-19T20:27:00;25.90;44.63
67942;SHT31;54731;42.600;23.476;2022-08-19T20:29:26;25.89;44.85
67942;SHT31;54731;42.600;23.476;2022-08-19T20:31:52;25.86;44.76
67942;SHT31;54731;42.600;23.476;2022-08-19T20:34:18;25.82;45.02
67942;SHT31;54731;42.600;23.476;2022-08-19T20:36:43;25.79;45.22
67942;SHT31;54731;42.600;23.476;2022-08-19T20:39:10;25.77;45.16
67942;SHT31;54731;42.600;23.476;2022-08-19T20:41:36;25.77;45.10
67942;SHT31;54731;42.600;23.476;2022-08-19T20:44:03;25.79;45.12
67942;SHT31;54731;42.600;23.476;2022-08-19T20:46:30;25.77;44.99
67942;SHT31;54731;42.600;23.476;2022-08-19T20:51:33;25.76;45.07
67942;SHT31;54731;42.600;23.476;2022-08-19T20:53:59;25.76;45.11
67942;SHT31;54731;42.600;23.476;2022-08-19T20:56:26;25.80;45.00
67942;SHT31;54731;42.600;23.476;2022-08-19T20:58:51;25.80;45.26
67942;SHT31;54731;42.600;23.476;2022-08-19T21:01:17;25.80;45.62
67942;SHT31;54731;42.600;23.476;2022-08-19T21:03:42;25.75;45.62
67942;SHT31;54731;42.600;23.476;2022-08-19T21:06:09;25.76;45.20
67942;SHT31;54731;42.600;23.476;2022-08-19T21:08:35;25.76;45.37
67942;SHT31;54731;42.600;23.476;2022-08-19T21:13:35;25.79;46.59
67942;SHT31;54731;42.600;23.476;2022-08-19T21:16:01;25.69;46.40
67942;SHT31;54731;42.600;23.476;2022-08-19T21:18:27;25.61;46.62
67942;SHT31;54731;42.600;23.476;2022-08-19T21:20:54;25.52;47.05
67942;SHT31;54731;42.600;23.476;2022-08-19T21:23:22;25.53;46.67
67942;SHT31;54731;42.600;23.476;2022-08-19T21:25:51;25.50;46.60
67942;SHT31;54731;42.600;23.476;2022-08-19T21:28:17;25.58;46.32
67942;SHT31;54731;42.600;23.476;2022-08-19T21:30:44;25.50;47.48
67942;SHT31;54731;42.600;23.476;2022-08-19T21:33:10;25.41;47.50
67942;SHT31;54731;42.600;23.476;2022-08-19T21:35:37;25.35;47.78
67942;SHT31;54731;42.600;23.476;2022-08-19T21:38:02;25.31;47.27
67942;SHT31;54731;42.600;23.476;2022-08-19T21:40:28;25.26;47.55
67942;SHT31;54731;42.600;23.476;2022-08-19T21:42:54;25.26;47.97
67942;SHT31;54731;42.600;23.476;2022-08-19T21:45:19;25.28;47.46
67942;SHT31;54731;42.600;23.476;2022-08-19T21:47:47;25.26;47.16
67942;SHT31;54731;42.600;23.476;2022-08-19T21:50:12;25.18;48.52
67942;SHT31;54731;42.600;23.476;2022-08-19T21:52:38;25.08;47.82
67942;SHT31;54731;42.600;23.476;2022-08-19T21:55:06;25.02;48.10
67942;SHT31;54731;42.600;23.476;2022-08-19T21:57:31;25.01;48.11
67942;SHT31;54731;42.600;23.476;2022-08-19T21:59:57;24.99;48.29
67942;SHT31;54731;42.600;23.476;2022-08-19T22:02:23;24.92;48.80
67942;SHT31;54731;42.600;23.476;2022-08-19T22:04:49;24.88;48.73
67942;SHT31;54731;42.600;23.476;2022-08-19T22:07:15;24.88;48.86
67942;SHT31;54731;42.600;23.476;2022-08-19T22:09:42;24.81;49.05
67942;SHT31;54731;42.600;23.476;2022-08-19T22:12:11;24.78;49.07
67942;SHT31;54731;42.600;23.476;2022-08-19T22:14:44;24.77;48.87
67942;SHT31;54731;42.600;23.476;2022-08-19T22:17:10;24.74;49.25
67942;SHT31;54731;42.600;23.476;2022-08-19T22:19:35;24.74;49.18
67942;SHT31;54731;42.600;23.476;2022-08-19T22:22:00;24.74;49.09
67942;SHT31;54731;42.600;23.476;2022-08-19T22:24:26;24.72;48.99
67942;SHT31;54731;42.600;23.476;2022-08-19T22:26:51;24.68;50.01
67942;SHT31;54731;42.600;23.476;2022-08-19T22:29:17;24.57;49.84
67942;SHT31;54731;42.600;23.476;2022-08-19T22:31:43;24.56;50.15
67942;SHT31;54731;42.600;23.476;2022-08-19T22:34:09;24.56;50.39
67942;SHT31;54731;42.600;23.476;2022-08-19T22:36:36;24.51;49.94
67942;SHT31;54731;42.600;23.476;2022-08-19T22:39:02;24.54;50.94
67942;SHT31;54731;42.600;23.476;2022-08-19T22:41:28;24.53;50.44
67942;SHT31;54731;42.600;23.476;2022-08-19T22:43:54;24.57;50.15
67942;SHT31;54731;42.600;23.476;2022-08-19T22:46:20;24.50;50.79
67942;SHT31;54731;42.600;23.476;2022-08-19T22:48:46;24.49;50.78
67942;SHT31;54731;42.600;23.476;2022-08-19T22:51:12;24.43;50.73
67942;SHT31;54731;42.600;23.476;2022-08-19T22:53:56;24.43;50.86
67942;SHT31;54731;42.600;23.476;2022-08-19T22:56:22;24.44;51.13
67942;SHT31;54731;42.600;23.476;2022-08-19T22:58:47;24.46;50.90
67942;SHT31;54731;42.600;23.476;2022-08-19T23:01:16;24.46;50.78
67942;SHT31;54731;42.600;23.476;2022-08-19T23:03:42;24.43;50.95
67942;SHT31;54731;42.600;23.476;2022-08-19T23:06:09;24.44;51.00
67942;SHT31;54731;42.600;23.476;2022-08-19T23:08:34;24.40;51.30
67942;SHT31;54731;42.600;23.476;2022-08-19T23:11:02;24.37;51.38
67942;SHT31;54731;42.600;23.476;2022-08-19T23:13:28;24.36;51.72
67942;SHT31;54731;42.600;23.476;2022-08-19T23:15:56;24.34;51.84
67942;SHT31;54731;42.600;23.476;2022-08-19T23:18:23;24.26;52.14
67942;SHT31;54731;42.600;23.476;2022-08-19T23:20:49;24.24;52.49
67942;SHT31;54731;42.600;23.476;2022-08-19T23:23:15;24.13;52.54
67942;SHT31;54731;42.600;23.476;2022-08-19T23:25:44;24.10;52.87
67942;SHT31;54731;42.600;23.476;2022-08-19T23:28:09;24.02;52.90
67942;SHT31;54731;42.600;23.476;2022-08-19T23:30:54;24.02;53.13
67942;SHT31;54731;42.600;23.476;2022-08-19T23:33:25;24.00;53.07
67942;SHT31;54731;42.600;23.476;2022-08-19T23:35:55;23.95;53.57
67942;SHT31;54731;42.600;23.476;2022-08-19T23:38:22;23.89;53.54
67942;SHT31;54731;42.600;23.476;2022-08-19T23:40:49;23.92;53.57
67942;SHT31;54731;42.600;23.476;2022-08-19T23:43:16;23.86;53.44
67942;SHT31;54731;42.600;23.476;2022-08-19T23:45:42;23.83;53.66
67942;SHT31;54731;42.600;23.476;2022-08-19T23:48:08;23.82;54.08
67942;SHT31;54731;42.600;23.476;2022-08-19T23:50:36;23.85;53.50
67942;SHT31;54731;42.600;23.476;2022-08-19T23:53:03;23.79;53.79
67942;SHT31;54731;42.600;23.476;2022-08-19T23:55:33;23.83;53.89
67942;SHT31;54731;42.600;23.476;2022-08-19T23:58:00;23.79;53.70
